Time;durP1;ratioP1;P1;durP2;ratioP2;P2;SDS_P1;SDS_P2;PMS_P1;PMS_P2;Temp;Humidity;BMP_temperature;BMP_pressure;BME280_temperature;BME280_humidity;BME280_pressure;Samples;Min_cycle;Max_cycle;Signal;HPM_P1;HPM_P2
2023/04/13 00:01:49;;;;;;;;;1.33;0.67;;;;;9.44;60.97;100033.44;4998322;28;45973;-51
2023/04/13 00:04:14;;;;;;;;;5.33;2.33;;;;;9.44;61.08;100034.28;4998206;28;45558;-56
2023/04/13 00:06:41;;;;;;;;;6.00;2.00;;;;;9.39;60.17;100030.41;4998547;28;45435;-56
2023/04/13 00:09:07;;;;;;;;;1.67;1.67;;;;;9.34;60.89;100033.53;4998313;28;45313;-51
2023/04/13 00:11:32;;;;;;;;;2.00;1.67;;;;;9.30;60.48;100034.00;4997975;28;45502;-52
2023/04/13 00:13:57;;;;;;;;;1.00;1.00;;;;;9.26;60.34;100033.47;4998133;28;45428;-53
2023/04/13 00:16:25;;;;;;;;;4.33;1.00;;;;;9.21;60.93;100033.94;4998160;28;45470;-51
2023/04/13 00:18:51;;;;;;;;;2.33;1.00;;;;;9.22;61.55;100045.38;4998407;28;45218;-48
2023/04/13 00:21:16;;;;;;;;;5.33;1.00;;;;;9.16;60.84;100033.56;4997905;28;47115;-48
2023/04/13 00:23:43;;;;;;;;;1.50;1.00;;;;;9.15;61.15;100041.69;4997780;28;45379;-50
2023/04/13 00:26:08;;;;;;;;;2.00;1.00;;;;;9.16;61.76;100038.06;4998028;28;45409;-51
2023/04/13 00:28:34;;;;;;;;;1.67;1.00;;;;;9.22;60.84;100045.38;4998130;28;45405;-50
2023/04/13 00:30:59;;;;;;;;;3.25;2.00;;;;;9.25;61.43;100045.91;4997919;28;47656;-52
2023/04/13 00:33:25;;;;;;;;;5.33;1.33;;;;;9.32;61.47;100046.13;4998050;28;45364;-51
2023/04/13 00:35:51;;;;;;;;;1.00;1.00;;;;;9.35;60.36;100042.31;4998022;28;45278;-51
2023/04/13 00:38:17;;;;;;;;;4.33;1.00;;;;;9.28;61.33;100031.50;4997951;28;45380;-52
2023/04/13 00:40:42;;;;;;;;;3.00;0.00;;;;;9.33;60.80;100046.97;4997637;28;45517;-49
2023/04/13 00:43:07;;;;;;;;;1.00;1.00;;;;;9.36;60.67;100038.69;4997766;28;45382;-52
2023/04/13 00:45:38;;;;;;;;;1.00;1.00;;;;;9.32;61.60;100040.81;4998039;28;45248;-51
2023/04/13 00:48:06;;;;;;;;;0.67;0.33;;;;;9.28;61.80;100044.78;4997606;28;45411;-51
2023/04/13 00:50:33;;;;;;;;;2.00;0.67;;;;;9.25;61.87;100037.94;4997404;28;47220;-52
2023/04/13 00:52:59;;;;;;;;;2.67;1.33;;;;;9.25;62.10;100032.63;4997370;28;45569;-53
2023/04/13 00:55:26;;;;;;;;;4.00;0.33;;;;;9.25;61.70;100035.28;4997378;28;45436;-49
2023/04/13 00:57:52;;;;;;;;;3.67;2.00;;;;;9.28;62.30;100035.97;4997764;28;45374;-52
2023/04/13 01:00:17;;;;;;;;;3.67;2.00;;;;;9.28;61.51;100038.63;4997123;28;46189;-49
2023/04/13 01:02:43;;;;;;;;;5.67;1.00;;;;;9.21;62.31;100038.41;4997763;28;45370;-49
2023/04/13 01:05:14;;;;;;;;;1.00;1.00;;;;;9.14;61.88;100021.44;4998145;28;45373;-52
2023/04/13 01:07:51;;;;;;;;;6.00;4.33;;;;;9.08;62.75;100027.38;4997867;28;45367;-51
2023/04/13 01:10:17;;;;;;;;;2.67;1.67;;;;;9.04;62.53;100037.47;4997129;28;46905;-51
2023/04/13 01:13:06;;;;;;;;;3.00;1.00;;;;;9.02;62.38;100035.94;4997728;28;45365;-49
2023/04/13 01:15:40;;;;;;;;;3.25;1.00;;;;;9.00;63.16;100028.97;4998273;28;45460;-49
2023/04/13 01:18:08;;;;;;;;;2.50;1.50;;;;;8.94;63.58;100028.78;4997879;28;45380;-52
2023/04/13 01:20:40;;;;;;;;;1.67;1.00;;;;;8.96;62.75;100048.84;4997296;28;46137;-50
2023/04/13 01:23:24;;;;;;;;;8.25;2.75;;;;;8.99;62.91;100042.41;4997432;28;45339;-51
2023/04/13 01:25:55;;;;;;;;;3.67;1.67;;;;;8.98;62.00;100033.63;4997265;28;45515;-52
2023/04/13 01:28:21;;;;;;;;;3.00;1.00;;;;;8.91;62.66;100027.25;4997288;28;45440;-57
2023/04/13 01:30:50;;;;;;;;;2.75;1.75;;;;;9.09;61.84;100055.56;4996644;28;47156;-57
2023/04/13 01:33:16;;;;;;;;;3.00;2.25;;;;;9.14;62.34;100051.50;4996694;28;45290;-59
2023/04/13 01:35:43;;;;;;;;;5.50;1.00;;;;;9.20;62.08;100061.47;4996958;28;45314;-57
2023/04/13 01:38:09;;;;;;;;;2.00;1.00;;;;;9.24;61.56;100036.28;4997529;28;45306;-56
2023/04/13 01:40:39;;;;;;;;;6.00;1.00;;;;;9.22;61.21;100035.59;4996636;28;46209;-51
2023/04/13 01:43:05;;;;;;;;;9.50;2.25;;;;;9.24;61.29;100048.72;4996443;28;45518;-52
2023/04/13 01:45:47;;;;;;;;;1.00;1.00;;;;;9.28;60.87;100066.00;4996890;28;45449;-52
2023/04/13 01:48:27;;;;;;;;;6.00;3.00;;;;;9.34;61.07;100052.09;4997106;28;45362;-53
2023/04/13 01:50:59;;;;;;;;;2.33;0.67;;;;;9.34;61.88;100060.06;4996538;28;46184;-55
2023/04/13 01:53:35;;;;;;;;;0.00;0.00;;;;;9.34;60.93;100065.38;4996631;28;45439;-52
2023/04/13 01:56:03;;;;;;;;;2.33;0.67;;;;;9.27;60.66;100058.19;4996604;28;45317;-50
2023/04/13 01:58:32;;;;;;;;;5.67;1.67;;;;;9.23;61.91;100065.66;4979418;28;45538;-52
2023/04/13 02:00:58;;;;;;;;;5.67;2.00;;;;;9.19;60.87;100072.25;4999725;28;47122;-52
2023/04/13 02:03:24;;;;;;;;;7.67;2.00;;;;;9.23;60.98;100055.03;5000100;28;45341;-50
2023/04/13 02:05:49;;;;;;;;;2.33;2.33;;;;;9.24;60.98;100077.91;5000254;28;45432;-50
2023/04/13 02:08:17;;;;;;;;;6.33;2.67;;;;;9.22;60.99;100075.41;5000396;28;45427;-51
2023/04/13 02:10:44;;;;;;;;;3.67;2.00;;;;;9.20;60.79;100074.75;4999939;28;45356;-55
2023/04/13 02:13:09;;;;;;;;;2.00;2.00;;;;;9.16;61.06;100059.28;5000026;28;45271;-55
2023/04/13 02:15:36;;;;;;;;;4.33;2.00;;;;;9.12;61.87;100066.72;4999960;28;45355;-54
2023/04/13 02:18:05;;;;;;;;;4.33;0.33;;;;;9.05;61.69;100057.69;5000454;28;45293;-51
2023/04/13 02:20:39;;;;;;;;;1.00;1.00;;;;;9.11;61.03;100065.06;4999837;28;45421;-54
2023/04/13 02:23:07;;;;;;;;;9.50;1.00;;;;;9.07;61.40;100065.50;4999764;28;45326;-54
2023/04/13 02:25:32;;;;;;;;;5.00;2.33;;;;;9.08;61.22;100093.72;4999767;28;45298;-59
2023/04/13 02:27:58;;;;;;;;;1.50;1.50;;;;;9.06;60.92;100066.47;4999996;28;45320;-58
2023/04/13 02:30:24;;;;;;;;;1.00;1.00;;;;;9.05;61.57;100076.25;4999706;28;46385;-56
2023/04/13 02:32:50;;;;;;;;;2.00;2.00;;;;;9.04;61.04;100089.69;4999651;28;45404;-55
2023/04/13 02:35:15;;;;;;;;;1.00;1.00;;;;;9.05;60.93;100084.22;4999870;28;45418;-54
2023/04/13 02:37:41;;;;;;;;;1.67;0.67;;;;;9.02;62.50;100084.56;5000201;28;45334;-56
2023/04/13 02:40:10;;;;;;;;;4.00;1.00;;;;;9.04;62.45;100089.69;4998623;28;46272;-54
2023/04/13 02:42:40;;;;;;;;;3.25;2.00;;;;;9.01;61.87;100080.22;4999365;28;45546;-52
2023/04/13 02:45:07;;;;;;;;;2.00;1.67;;;;;9.02;61.41;100087.19;4999686;28;45420;-59
2023/04/13 02:47:33;;;;;;;;;2.00;2.00;;;;;9.12;61.40;100084.47;4999803;28;45295;-53
2023/04/13 02:50:00;;;;;;;;;1.33;1.00;;;;;9.16;61.98;100097.25;4981744;28;46926;-55
2023/04/13 02:52:26;;;;;;;;;3.50;1.00;;;;;9.21;61.69;100094.16;4999280;28;45293;-51
2023/04/13 02:54:53;;;;;;;;;2.00;2.00;;;;;9.24;62.08;100091.19;4999417;28;45326;-53
2023/04/13 02:57:22;;;;;;;;;2.00;1.00;;;;;9.21;61.26;100092.31;4999753;28;45498;-56
2023/04/13 02:59:48;;;;;;;;;6.00;2.00;;;;;9.22;61.10;100099.28;4999238;28;47175;-57
2023/04/13 03:02:13;;;;;;;;;1.75;0.75;;;;;9.15;61.59;100092.94;4999369;28;45433;-58
2023/04/13 03:04:39;;;;;;;;;5.00;2.00;;;;;9.12;61.71;100087.09;4999311;28;45955;-50
2023/04/13 03:07:08;;;;;;;;;1.25;1.00;;;;;9.05;61.54;100105.44;4999405;28;45273;-54
2023/04/13 03:09:35;;;;;;;;;1.00;1.00;;;;;9.06;61.54;100100.97;4999151;28;46198;-54
2023/04/13 03:12:01;;;;;;;;;5.00;1.00;;;;;9.14;62.14;100111.66;4997563;28;45236;-54
2023/04/13 03:14:28;;;;;;;;;3.25;2.00;;;;;9.17;61.88;100111.34;4999077;28;45304;-53
2023/04/13 03:16:55;;;;;;;;;4.00;2.00;;;;;9.14;61.17;100119.63;4999154;28;45376;-55
2023/04/13 03:19:20;;;;;;;;;3.00;1.00;;;;;9.04;61.17;100095.81;4998849;28;47040;-54
2023/04/13 03:21:46;;;;;;;;;2.50;2.00;;;;;8.98;62.29;100099.94;4998979;28;45316;-57
2023/04/13 03:24:11;;;;;;;;;1.25;1.00;;;;;8.95;61.11;100102.88;4999220;28;45414;-54
2023/04/13 03:26:37;;;;;;;;;0.75;0.75;;;;;8.92;62.36;100119.09;4998558;28;45445;-48
2023/04/13 03:29:03;;;;;;;;;7.25;4.75;;;;;8.83;62.03;100114.69;4999073;28;45337;-56
2023/04/13 03:31:29;;;;;;;;;0.50;0.50;;;;;8.85;62.59;100112.75;4998030;28;45259;-56
2023/04/13 03:33:56;;;;;;;;;7.75;3.00;;;;;8.84;62.43;100115.53;4998951;28;45403;-55
2023/04/13 03:36:22;;;;;;;;;4.00;3.00;;;;;8.78;63.33;100142.66;4999031;28;45371;-56
2023/04/13 03:38:47;;;;;;;;;3.25;2.00;;;;;8.75;62.43;100134.00;4998538;28;45776;-55
2023/04/13 03:41:12;;;;;;;;;1.33;0.67;;;;;8.75;62.30;100130.53;4981112;28;45263;-57
2023/04/13 03:43:38;;;;;;;;;1.50;1.00;;;;;8.70;62.07;100125.69;4998611;28;45319;-55
2023/04/13 03:46:03;;;;;;;;;7.75;1.00;;;;;8.63;63.91;100124.59;4999069;28;45326;-54
2023/04/13 03:48:29;;;;;;;;;3.25;1.00;;;;;8.65;62.36;100132.41;4998434;28;47144;-49
2023/04/13 03:50:55;;;;;;;;;3.75;1.50;;;;;8.64;63.52;100136.88;4998275;28;45620;-50
2023/04/13 03:53:20;;;;;;;;;5.50;1.50;;;;;8.54;63.96;100127.31;4998836;28;45436;-53
2023/04/13 03:55:45;;;;;;;;;9.25;2.50;;;;;8.62;63.29;100143.31;4998789;28;45318;-52
2023/04/13 03:58:11;;;;;;;;;1.00;0.00;;;;;8.59;62.57;100141.78;4998572;28;45436;-52
2023/04/13 04:00:36;;;;;;;;;2.50;1.75;;;;;8.60;63.17;100148.78;4998422;28;45345;-58
2023/04/13 04:03:02;;;;;;;;;5.50;1.75;;;;;8.56;63.60;100155.34;4980937;28;45337;-55
2023/04/13 04:05:27;;;;;;;;;4.50;1.00;;;;;8.56;63.48;100154.53;4998731;28;45429;-53
2023/04/13 04:07:52;;;;;;;;;2.25;2.00;;;;;8.49;63.96;100151.63;4998185;28;46103;-52
2023/04/13 04:10:18;;;;;;;;;2.00;2.00;;;;;8.54;63.31;100161.78;4998379;28;45409;-51
2023/04/13 04:12:44;;;;;;;;;1.25;1.25;;;;;8.52;63.87;100161.94;4998080;28;45585;-53
2023/04/13 04:15:09;;;;;;;;;3.00;0.00;;;;;8.49;63.57;100157.75;4998543;28;45439;-51
2023/04/13 04:17:35;;;;;;;;;3.25;1.75;;;;;8.47;64.49;100150.94;4998166;28;46239;-54
2023/04/13 04:20:00;;;;;;;;;1.50;1.00;;;;;8.42;63.98;100154.00;4997841;28;50662;-52
2023/04/13 04:22:28;;;;;;;;;6.50;2.00;;;;;8.47;64.39;100169.50;4980262;28;45282;-53
2023/04/13 04:24:57;;;;;;;;;2.75;1.25;;;;;8.45;64.37;100160.84;4998083;28;45285;-50
2023/04/13 04:27:25;;;;;;;;;2.50;1.50;;;;;8.43;64.03;100160.16;4997543;28;47063;-50
2023/04/13 04:29:51;;;;;;;;;1.00;1.00;;;;;8.40;64.25;100165.75;4997696;28;45401;-56
2023/04/13 04:32:17;;;;;;;;;3.50;1.50;;;;;8.28;64.61;100162.44;4997860;28;45342;-54
2023/04/13 04:34:42;;;;;;;;;2.75;2.00;;;;;8.38;64.34;100170.34;4998045;28;45181;-52
2023/04/13 04:37:08;;;;;;;;;8.75;2.25;;;;;8.39;64.94;100180.84;4997802;28;45230;-55
2023/04/13 04:39:34;;;;;;;;;8.50;4.50;;;;;8.36;65.18;100188.19;4997614;28;45944;-53
2023/04/13 04:42:02;;;;;;;;;10.75;4.00;;;;;8.34;64.70;100190.97;4997796;28;45383;-53
2023/04/13 04:44:32;;;;;;;;;7.00;2.00;;;;;8.38;63.84;100199.50;4997949;28;45520;-52
2023/04/13 04:46:58;;;;;;;;;7.00;1.00;;;;;8.35;64.05;100194.50;4997383;28;46133;-53
2023/04/13 04:49:27;;;;;;;;;5.50;4.00;;;;;8.33;64.95;100202.56;4997601;28;45374;-48
2023/04/13 04:51:54;;;;;;;;;2.75;2.00;;;;;8.31;64.17;100193.09;4997648;28;45423;-53
2023/04/13 04:54:19;;;;;;;;;0.25;0.25;;;;;8.30;64.16;100197.59;4997699;28;45492;-50
2023/04/13 04:56:48;;;;;;;;;2.00;1.00;;;;;8.30;64.75;100204.66;4997085;28;46450;-51
2023/04/13 04:59:14;;;;;;;;;8.00;3.00;;;;;8.28;65.04;100207.47;4997428;28;45337;-54
2023/04/13 05:01:41;;;;;;;;;1.75;1.00;;;;;8.28;65.76;100210.13;4997649;28;45307;-54
2023/04/13 05:04:07;;;;;;;;;4.50;1.50;;;;;8.22;65.42;100203.59;4998064;28;45273;-53
2023/04/13 05:06:33;;;;;;;;;6.00;2.75;;;;;8.23;66.21;100226.47;4997212;28;47235;-55
2023/04/13 05:08:59;;;;;;;;;0.00;0.00;;;;;8.23;65.84;100223.81;4997413;28;45423;-55
2023/04/13 05:11:25;;;;;;;;;6.00;2.00;;;;;8.11;65.78;100190.53;4997411;28;45278;-52
2023/04/13 05:13:51;;;;;;;;;1.00;1.00;;;;;8.24;65.89;100222.81;4996994;28;45568;-53
2023/04/13 05:16:17;;;;;;;;;1.50;1.25;;;;;8.24;65.51;100230.78;4997198;28;46401;-55
2023/04/13 05:18:44;;;;;;;;;2.00;1.00;;;;;8.22;65.88;100235.41;4996887;28;45529;-49
2023/04/13 05:21:10;;;;;;;;;2.75;1.00;;;;;8.19;65.73;100234.84;4997265;28;45325;-52
2023/04/13 05:23:35;;;;;;;;;5.50;3.00;;;;;8.27;65.89;100250.84;4997169;28;45467;-50
2023/04/13 05:26:01;;;;;;;;;16.00;3.50;;;;;8.29;65.57;100245.41;4996839;28;47069;-52
2023/04/13 05:28:27;;;;;;;;;6.50;2.50;;;;;8.31;65.50;100254.91;4996933;28;45456;-56
2023/04/13 05:30:52;;;;;;;;;4.75;2.00;;;;;8.32;65.04;100255.72;4997019;28;45476;-55
2023/04/13 05:33:19;;;;;;;;;5.25;3.00;;;;;8.34;65.56;100267.00;4997287;28;45247;-50
2023/04/13 05:35:44;;;;;;;;;7.50;2.00;;;;;8.40;65.43;100266.47;4982265;28;46092;-53
2023/04/13 05:38:10;;;;;;;;;7.75;3.50;;;;;8.41;65.40;100255.72;5000543;28;45344;-50
2023/04/13 05:40:35;;;;;;;;;5.50;4.00;;;;;8.41;66.11;100254.88;5000746;28;45287;-54
2023/04/13 05:43:01;;;;;;;;;9.00;1.50;;;;;8.45;65.65;100256.28;5000388;28;45491;-58
2023/04/13 05:45:27;;;;;;;;;4.50;0.75;;;;;8.46;65.91;100255.28;5000492;28;46102;-53
2023/04/13 05:47:52;;;;;;;;;7.00;4.50;;;;;8.56;64.71;100266.69;5000394;28;45498;-53
2023/04/13 05:50:18;;;;;;;;;5.75;1.00;;;;;8.57;65.36;100263.06;5000487;28;45333;-52
2023/04/13 05:52:43;;;;;;;;;8.25;4.25;;;;;8.60;65.40;100265.44;5000632;28;45458;-55
2023/04/13 05:55:09;;;;;;;;;7.50;0.75;;;;;8.62;64.78;100260.81;5000397;28;45243;-55
2023/04/13 05:57:34;;;;;;;;;1.00;1.00;;;;;8.66;64.75;100256.03;5000370;28;45491;-57
2023/04/13 06:00:00;;;;;;;;;1.00;1.00;;;;;8.59;64.58;100244.34;5000479;28;45484;-53
2023/04/13 06:02:25;;;;;;;;;0.50;0.50;;;;;8.68;64.83;100251.41;5000684;28;45383;-59
2023/04/13 06:04:53;;;;;;;;;6.00;2.00;;;;;8.77;65.04;100263.81;5000127;28;46013;-53
2023/04/13 06:07:20;;;;;;;;;1.75;1.25;;;;;8.80;64.15;100268.81;5000204;28;45198;-51
2023/04/13 06:09:46;;;;;;;;;6.50;1.25;;;;;8.84;64.65;100266.72;5000299;28;45323;-53
2023/04/13 06:12:11;;;;;;;;;9.00;2.00;;;;;8.87;65.34;100277.03;5000034;28;45203;-58
2023/04/13 06:14:37;;;;;;;;;3.50;1.75;;;;;8.89;64.67;100285.66;4999980;28;47247;-54
2023/04/13 06:17:02;;;;;;;;;8.25;2.00;;;;;8.93;64.51;100276.44;4999890;28;45797;-50
2023/04/13 06:19:27;;;;;;;;;9.00;1.75;;;;;8.98;63.76;100276.84;5000020;28;45340;-49
2023/04/13 06:21:53;;;;;;;;;4.50;2.75;;;;;9.01;64.94;100276.53;5000279;28;45331;-50
2023/04/13 06:24:18;;;;;;;;;5.75;3.50;;;;;9.03;64.67;100284.34;4999964;28;46146;-53
2023/04/13 06:26:44;;;;;;;;;7.75;3.00;;;;;9.07;64.73;100289.22;4999872;28;45381;-52
2023/04/13 06:29:09;;;;;;;;;6.00;2.00;;;;;9.05;63.66;100280.56;4999912;28;45827;-52
2023/04/13 06:31:35;;;;;;;;;6.25;2.00;;;;;9.10;64.84;100293.38;4999780;28;45375;-48
2023/04/13 06:34:01;;;;;;;;;5.50;3.25;;;;;9.14;64.69;100289.44;4999967;28;46219;-51
2023/04/13 06:36:26;;;;;;;;;5.25;2.00;;;;;9.19;64.18;100297.81;4999462;28;45294;-51
2023/04/13 06:38:53;;;;;;;;;5.00;1.00;;;;;9.27;63.81;100297.03;4999661;28;45390;-49
2023/04/13 06:41:18;;;;;;;;;9.00;1.75;;;;;9.24;63.23;100287.59;4999947;28;45461;-52
2023/04/13 06:43:43;;;;;;;;;2.75;2.00;;;;;9.43;62.94;100295.41;4999025;28;47277;-50
2023/04/13 06:46:09;;;;;;;;;3.00;2.00;;;;;9.48;63.70;100303.78;4999525;28;45417;-47
2023/04/13 06:48:34;;;;;;;;;3.00;3.00;;;;;9.54;62.92;100298.84;4999588;28;45275;-48
2023/04/13 06:51:00;;;;;;;;;6.00;3.50;;;;;9.58;62.76;100292.25;4999409;28;45405;-53
2023/04/13 06:53:25;;;;;;;;;2.67;0.00;;;;;9.65;63.04;100291.50;4999574;28;45235;-54
2023/04/13 06:55:51;;;;;;;;;5.67;1.67;;;;;9.72;63.12;100294.34;4999488;28;45310;-51
2023/04/13 06:58:16;;;;;;;;;1.00;1.00;;;;;9.82;62.24;100297.78;4999399;28;45346;-52
2023/04/13 07:00:41;;;;;;;;;1.33;1.00;;;;;9.84;62.32;100285.19;4999585;28;45369;-50
2023/04/13 07:03:07;;;;;;;;;9.67;3.67;;;;;9.98;62.01;100291.75;4999094;28;45365;-47
2023/04/13 07:05:32;;;;;;;;;5.00;1.00;;;;;10.14;61.37;100291.88;4999173;28;45314;-50
2023/04/13 07:07:57;;;;;;;;;2.00;2.00;;;;;10.31;61.05;100300.84;4981612;28;45370;-52
2023/04/13 07:10:23;;;;;;;;;3.67;1.00;;;;;10.60;60.46;100291.72;4999528;28;45243;-53
2023/04/13 07:12:48;;;;;;;;;12.33;3.00;;;;;11.37;59.22;100293.34;4998928;28;46094;-54
2023/04/13 07:15:14;;;;;;;;;8.33;2.00;;;;;12.57;56.16;100297.22;4999100;28;45294;-54
2023/04/13 07:17:39;;;;;;;;;4.33;3.00;;;;;12.83;55.40;100294.31;4999358;28;45377;-52
2023/04/13 07:20:06;;;;;;;;;6.33;3.00;;;;;13.03;54.78;100293.91;4999338;28;45302;-54
2023/04/13 07:22:35;;;;;;;;;6.67;1.67;;;;;13.94;53.00;100295.88;4998974;28;46233;-50
2023/04/13 07:25:01;;;;;;;;;2.00;2.00;;;;;13.61;52.16;100301.47;4998845;28;45372;-51
2023/04/13 07:27:26;;;;;;;;;7.00;4.00;;;;;14.43;51.49;100287.41;4998878;28;45302;-52
2023/04/13 07:29:53;;;;;;;;;2.33;2.00;;;;;15.29;50.86;100299.28;4999142;28;45545;-60
2023/04/13 07:32:19;;;;;;;;;3.33;2.00;;;;;16.17;48.07;100297.31;4998830;28;45393;-57
2023/04/13 07:34:45;;;;;;;;;5.00;2.33;;;;;16.91;46.39;100303.03;4998813;28;45786;-59
2023/04/13 07:37:10;;;;;;;;;3.33;2.67;;;;;17.69;44.00;100294.59;4999130;28;45342;-60
2023/04/13 07:39:36;;;;;;;;;4.00;3.00;;;;;18.08;43.47;100291.19;4999137;28;45416;-61
2023/04/13 07:42:01;;;;;;;;;4.00;1.67;;;;;18.25;42.52;100304.22;4998629;28;48110;-58
2023/04/13 07:44:27;;;;;;;;;3.67;1.33;;;;;17.46;44.61;100297.66;4998676;28;45372;-54
2023/04/13 07:46:55;;;;;;;;;3.67;2.00;;;;;18.52;42.01;100313.09;4998980;28;45334;-58
2023/04/13 07:49:21;;;;;;;;;4.00;2.00;;;;;19.33;40.84;100300.03;4999358;28;45484;-59
2023/04/13 07:51:47;;;;;;;;;1.00;1.00;;;;;20.27;38.55;100308.34;4998588;28;46408;-62
2023/04/13 07:54:12;;;;;;;;;5.00;3.00;;;;;20.57;37.70;100303.97;4998830;28;45255;-59
2023/04/13 07:56:37;;;;;;;;;2.67;1.67;;;;;21.38;36.11;100307.44;4998127;28;45691;-61
2023/04/13 07:59:03;;;;;;;;;6.00;3.00;;;;;21.69;35.74;100314.50;4998495;28;45508;-59
2023/04/13 08:01:28;;;;;;;;;8.33;5.33;;;;;21.42;36.03;100316.75;4998199;28;45593;-54
2023/04/13 08:03:54;;;;;;;;;8.50;3.75;;;;;21.23;35.81;100325.91;4998826;28;45331;-55
2023/04/13 08:06:22;;;;;;;;;4.75;3.75;;;;;20.61;36.33;100329.50;4998628;28;45386;-55
2023/04/13 08:08:48;;;;;;;;;4.00;3.00;;;;;19.39;38.46;100334.25;4998518;28;45404;-50
2023/04/13 08:11:13;;;;;;;;;6.33;4.33;;;;;19.94;37.84;100322.97;4998175;28;46097;-54
2023/04/13 08:13:39;;;;;;;;;3.50;2.00;;;;;19.67;38.07;100331.22;4998164;28;45527;-50
2023/04/13 08:16:05;;;;;;;;;4.75;3.00;;;;;19.72;38.26;100332.44;4998431;28;45297;-57
2023/04/13 08:18:31;;;;;;;;;4.50;3.00;;;;;19.31;40.03;100337.19;4998740;28;45308;-55
2023/04/13 08:20:59;;;;;;;;;1.00;1.00;;;;;19.80;38.88;100338.41;4998189;28;46524;-59
2023/04/13 08:23:26;;;;;;;;;4.25;1.00;;;;;19.62;39.61;100319.41;4998280;28;45367;-52
2023/04/13 08:25:51;;;;;;;;;6.67;2.67;;;;;20.15;37.08;100319.06;4998421;28;45366;-51
2023/04/13 08:28:16;;;;;;;;;3.00;2.75;;;;;20.59;37.21;100326.19;4998580;28;45323;-57
2023/04/13 08:30:42;;;;;;;;;8.00;2.25;;;;;20.62;36.30;100331.16;4998001;28;45401;-51
2023/04/13 08:33:07;;;;;;;;;3.00;2.00;;;;;20.50;36.63;100338.34;4980440;28;45455;-50
2023/04/13 08:35:37;;;;;;;;;4.25;2.00;;;;;20.99;37.07;100341.19;4998281;28;45309;-51
2023/04/13 08:38:03;;;;;;;;;6.25;4.50;;;;;21.39;35.37;100330.75;4998411;28;45373;-50
2023/04/13 08:40:30;;;;;;;;;8.00;3.00;;;;;21.33;39.25;100331.66;4997822;28;46020;-49
2023/04/13 08:42:55;;;;;;;;;5.00;1.75;;;;;21.65;34.98;100338.50;4997684;28;45431;-52
2023/04/13 08:45:21;;;;;;;;;5.50;3.00;;;;;21.51;34.75;100342.44;4997800;28;45360;-56
2023/04/13 08:47:48;;;;;;;;;4.00;2.75;;;;;21.52;35.07;100340.56;4998060;28;45598;-59
2023/04/13 08:50:15;;;;;;;;;4.00;3.00;;;;;22.27;35.37;100332.00;4997736;28;47776;-58
2023/04/13 08:52:41;;;;;;;;;11.00;2.25;;;;;23.59;33.02;100340.31;4997602;28;45239;-59
2023/04/13 08:55:06;;;;;;;;;4.50;2.00;;;;;25.77;29.40;100319.41;4997796;28;45393;-60
2023/04/13 08:57:33;;;;;;;;;1.75;1.75;;;;;28.19;25.60;100334.06;4998134;28;45311;-56
2023/04/13 08:59:59;;;;;;;;;2.25;1.00;;;;;28.60;25.31;100346.63;4997306;28;46369;-58
2023/04/13 09:02:31;;;;;;;;;2.75;2.00;;;;;27.76;25.54;100337.03;4997566;28;45243;-53
2023/04/13 09:05:03;;;;;;;;;3.20;3.20;;;;;27.14;27.38;100346.09;4997693;28;45212;-51
2023/04/13 09:07:31;;;;;;;;;3.80;2.00;;;;;29.68;23.92;100351.78;4997919;28;45242;-52
2023/04/13 09:09:58;;;;;;;;;6.20;2.00;;;;;31.33;22.71;100328.88;4996937;28;45367;-58
2023/04/13 09:12:25;;;;;;;;;7.40;3.80;;;;;32.84;21.02;100323.16;4997409;28;45405;-52
2023/04/13 09:14:50;;;;;;;;;4.80;4.00;;;;;34.32;19.31;100332.84;4997408;28;45347;-50
2023/04/13 09:17:26;;;;;;;;;7.75;5.00;;;;;35.52;17.71;100336.44;4997735;28;45488;-51
2023/04/13 09:19:54;;;;;;;;;1.40;1.40;;;;;36.37;18.07;100328.44;4997320;28;45357;-53
2023/04/13 09:22:20;;;;;;;;;3.00;1.60;;;;;37.30;16.17;100338.66;4997428;28;45259;-53
2023/04/13 09:24:47;;;;;;;;;1.00;1.00;;;;;36.44;16.40;100339.78;4997489;28;45213;-52
2023/04/13 09:27:22;;;;;;;;;3.80;2.00;;;;;36.95;19.40;100343.56;4997555;28;45168;-55
2023/04/13 09:29:53;;;;;;;;;3.80;2.60;;;;;37.24;15.50;100328.09;4996626;28;46523;-53
2023/04/13 09:32:27;;;;;;;;;7.40;1.40;;;;;38.31;15.64;100332.94;4997363;28;45362;-55
2023/04/13 09:35:03;;;;;;;;;3.00;1.40;;;;;38.02;18.75;100352.53;4997331;28;45401;-53
2023/04/13 09:37:29;;;;;;;;;4.40;0.80;;;;;37.56;17.30;100334.91;4997472;28;45424;-55
2023/04/13 09:39:54;;;;;;;;;4.20;2.00;;;;;38.67;14.44;100334.97;4997002;28;46367;-55
2023/04/13 09:42:20;;;;;;;;;1.75;1.75;;;;;38.79;15.70;100325.06;4997024;28;45337;-55
2023/04/13 09:44:57;;;;;;;;;4.00;0.25;;;;;39.29;14.82;100330.28;4997105;28;45609;-54
2023/04/13 09:47:23;;;;;;;;;1.80;1.40;;;;;40.17;13.38;100330.50;4997409;28;45361;-54
2023/04/13 09:49:48;;;;;;;;;2.25;1.00;;;;;39.56;12.96;100328.69;4997018;28;47159;-54
2023/04/13 09:52:24;;;;;;;;;2.25;1.25;;;;;35.51;15.97;100332.84;4996869;28;45420;-55
2023/04/13 09:54:54;;;;;;;;;2.00;0.20;;;;;36.50;15.45;100338.53;4997139;28;45349;-51
2023/04/13 09:57:27;;;;;;;;;2.80;1.40;;;;;37.47;15.02;100331.41;4997481;28;45405;-52
2023/04/13 09:59:55;;;;;;;;;1.20;0.80;;;;;38.01;14.42;100328.66;4996754;28;45311;-53
2023/04/13 10:02:21;;;;;;;;;4.00;0.80;;;;;35.79;16.69;100335.31;4996891;28;45345;-51
2023/04/13 10:04:46;;;;;;;;;3.75;2.00;;;;;34.66;15.88;100335.81;4997189;28;45287;-57
2023/04/13 10:07:12;;;;;;;;;5.25;2.00;;;;;33.12;17.50;100337.78;4997138;28;45410;-52
2023/04/13 10:09:38;;;;;;;;;4.00;1.00;;;;;30.92;18.61;100343.06;4996983;28;46018;-60
2023/04/13 10:12:05;;;;;;;;;2.00;1.00;;;;;29.30;21.13;100319.34;4996784;28;45422;-58
2023/04/13 10:14:34;;;;;;;;;2.80;1.20;;;;;32.33;18.30;100317.75;4996291;28;45483;-60
2023/04/13 10:17:06;;;;;;;;;0.20;0.20;;;;;33.51;16.47;100323.44;4996975;28;45401;-51
2023/04/13 10:19:44;;;;;;;;;3.60;0.80;;;;;35.15;16.84;100316.50;4996789;28;46227;-55
2023/04/13 10:22:10;;;;;;;;;4.80;3.00;;;;;36.91;14.38;100315.66;5000195;28;45273;-52
2023/04/13 10:24:38;;;;;;;;;1.20;0.20;;;;;38.01;13.54;100323.09;5000159;28;45411;-54
2023/04/13 10:27:13;;;;;;;;;3.00;0.00;;;;;38.76;14.10;100322.94;5000337;28;45540;-54
2023/04/13 10:29:38;;;;;;;;;0.00;0.00;;;;;39.63;12.01;100325.31;5000012;28;45443;-59
2023/04/13 10:32:04;;;;;;;;;3.00;1.25;;;;;40.01;11.86;100318.47;5000051;28;45312;-59
2023/04/13 10:34:31;;;;;;;;;2.00;1.00;;;;;37.55;12.94;100327.75;5000192;28;45401;-57
2023/04/13 10:37:01;;;;;;;;;1.80;0.00;;;;;37.70;13.38;100311.28;5000095;28;45262;-54
2023/04/13 10:39:29;;;;;;;;;1.20;1.00;;;;;38.72;14.15;100317.25;4999786;28;46442;-56
2023/04/13 10:41:59;;;;;;;;;2.00;1.40;;;;;36.19;14.26;100306.28;4999774;28;45370;-59
2023/04/13 10:44:24;;;;;;;;;1.80;1.80;;;;;34.13;15.59;100306.25;4999617;28;45325;-59
2023/04/13 10:46:50;;;;;;;;;1.50;1.50;;;;;33.60;16.23;100322.69;5000104;28;45326;-53
2023/04/13 10:49:16;;;;;;;;;1.25;1.00;;;;;31.96;17.36;100317.53;4999810;28;45945;-52
2023/04/13 10:51:43;;;;;;;;;1.00;1.00;;;;;30.17;18.02;100318.00;4999922;28;45589;-53
2023/04/13 10:54:09;;;;;;;;;0.00;0.00;;;;;29.31;19.56;100311.94;4999895;28;45244;-52
2023/04/13 10:56:35;;;;;;;;;4.00;2.20;;;;;28.98;18.85;100329.88;4999987;28;45452;-53
2023/04/13 10:59:01;;;;;;;;;0.25;0.00;;;;;27.34;19.82;100326.22;4999477;28;46122;-53
2023/04/13 11:01:29;;;;;;;;;5.00;1.25;;;;;25.44;21.55;100276.00;4999299;28;45402;-58
2023/04/13 11:03:56;;;;;;;;;0.60;0.20;;;;;24.37;23.01;100327.91;4999686;28;45576;-52
2023/04/13 11:06:22;;;;;;;;;1.00;1.00;;;;;23.21;23.96;100326.53;4999805;28;45291;-52
2023/04/13 11:08:48;;;;;;;;;3.40;1.20;;;;;22.26;24.85;100330.34;4999405;28;45471;-54
2023/04/13 11:11:23;;;;;;;;;3.00;3.00;;;;;21.85;24.97;100327.41;4999362;28;45451;-53
2023/04/13 11:13:49;;;;;;;;;2.60;1.00;;;;;21.74;25.59;100332.75;4999673;28;45456;-54
2023/04/13 11:16:14;;;;;;;;;3.25;2.00;;;;;24.53;23.78;100334.41;4999443;28;45386;-55
2023/04/13 11:18:40;;;;;;;;;1.75;1.25;;;;;26.16;21.61;100319.19;4999231;28;47082;-52
2023/04/13 11:21:15;;;;;;;;;0.50;0.50;;;;;24.73;22.65;100322.16;4999078;28;45849;-52
2023/04/13 11:23:41;;;;;;;;;1.00;1.00;;;;;23.41;23.61;100327.78;4999224;28;45462;-50
2023/04/13 11:26:07;;;;;;;;;3.60;1.00;;;;;24.43;23.66;100317.09;4999644;28;45444;-53
2023/04/13 11:28:40;;;;;;;;;0.75;0.75;;;;;24.51;24.14;100314.78;4999164;28;46277;-53